Time;durP1;ratioP1;P1;durP2;ratioP2;P2;SDS_P1;SDS_P2;PMS_P1;PMS_P2;Temp;Humidity;BMP_temperature;BMP_pressure;BME280_temperature;BME280_humidity;BME280_pressure;Samples;Min_cycle;Max_cycle;Signal;HPM_P1;HPM_P2
2022/11/02 00:00:28;;;;;;;13.30;2.25;;;12.70;99.90;;;;;;4925467;29;20501;-60
2022/11/02 00:02:54;;;;;;;10.55;2.00;;;12.60;99.90;;;;;;4924217;29;20074;-61
2022/11/02 00:05:23;;;;;;;11.90;2.42;;;12.70;99.90;;;;;;4925260;29;20484;-61
2022/11/02 00:07:53;;;;;;;11.80;2.15;;;12.60;99.90;;;;;;4924540;29;20092;-61
2022/11/02 00:10:20;;;;;;;8.48;2.53;;;12.60;99.90;;;;;;4924153;29;20047;-61
2022/11/02 00:12:47;;;;;;;9.20;1.85;;;12.70;99.90;;;;;;4924805;29;20044;-60
2022/11/02 00:15:13;;;;;;;11.27;2.20;;;12.70;99.90;;;;;;4923625;29;20044;-61
2022/11/02 00:17:41;;;;;;;8.43;2.08;;;12.70;99.90;;;;;;4925338;29;20116;-61
2022/11/02 00:20:09;;;;;;;9.82;1.83;;;12.60;99.90;;;;;;4923799;29;20111;-61
2022/11/02 00:22:35;;;;;;;13.15;2.47;;;12.60;99.90;;;;;;4924898;29;20092;-61
2022/11/02 00:25:03;;;;;;;11.90;2.20;;;12.50;99.90;;;;;;4907312;29;20555;-62
2022/11/02 00:27:30;;;;;;;9.52;1.98;;;12.30;99.90;;;;;;4906583;29;20071;-67
2022/11/02 00:29:57;;;;;;;14.30;3.00;;;12.20;99.90;;;;;;4924997;29;20439;-67
2022/11/02 00:32:24;;;;;;;9.77;2.05;;;12.00;99.90;;;;;;4906108;29;20517;-66
2022/11/02 00:34:49;;;;;;;11.38;2.40;;;12.00;99.90;;;;;;4924972;29;20036;-63
2022/11/02 00:37:15;;;;;;;8.50;1.90;;;11.90;99.90;;;;;;4923544;29;20612;-63
2022/11/02 00:39:41;;;;;;;12.27;2.58;;;11.90;99.90;;;;;;4924621;29;20408;-62
2022/11/02 00:42:07;;;;;;;8.10;1.65;;;11.70;99.90;;;;;;4923915;29;20044;-62
2022/11/02 00:44:32;;;;;;;5.88;1.52;;;11.70;99.90;;;;;;4923871;29;20111;-63
2022/11/02 00:46:58;;;;;;;9.70;1.60;;;11.50;99.90;;;;;;4924388;29;20048;-63
2022/11/02 00:49:23;;;;;;;8.85;1.60;;;11.50;99.90;;;;;;4923257;29;20050;-62
2022/11/02 00:51:49;;;;;;;11.25;2.88;;;11.60;99.90;;;;;;4924767;29;20067;-63
2022/11/02 00:54:15;;;;;;;10.82;1.80;;;11.50;99.90;;;;;;4923310;29;20103;-62
2022/11/02 00:56:40;;;;;;;9.55;1.73;;;11.60;99.90;;;;;;4907407;29;20052;-63
2022/11/02 00:59:06;;;;;;;7.10;2.30;;;11.50;99.90;;;;;;4908125;29;20455;-61
2022/11/02 01:01:32;;;;;;;9.18;1.95;;;11.40;99.90;;;;;;4904832;29;20138;-62
2022/11/02 01:03:58;;;;;;;6.78;1.40;;;11.60;99.90;;;;;;4904327;29;20044;-62
2022/11/02 01:06:23;;;;;;;5.10;1.50;;;11.50;99.90;;;;;;4887085;29;20051;-62
2022/11/02 01:08:49;;;;;;;10.18;1.60;;;11.30;99.90;;;;;;4905315;29;20075;-62
2022/11/02 01:11:18;;;;;;;7.70;1.38;;;11.30;99.90;;;;;;4903630;29;20085;-62
2022/11/02 01:13:44;;;;;;;9.00;1.50;;;11.50;99.90;;;;;;4905366;29;20053;-62
2022/11/02 01:16:11;;;;;;;9.07;1.50;;;11.30;99.90;;;;;;4904221;29;20048;-60
2022/11/02 01:18:37;;;;;;;6.63;1.30;;;11.40;99.90;;;;;;4904073;29;20486;-61
2022/11/02 01:21:03;;;;;;;6.93;1.60;;;11.20;99.90;;;;;;4904660;29;20083;-62
2022/11/02 01:23:33;;;;;;;7.95;1.73;;;11.20;99.90;;;;;;4904060;29;20048;-61
2022/11/02 01:26:02;;;;;;;7.50;1.65;;;11.30;99.90;;;;;;4905166;29;20056;-61
2022/11/02 01:28:28;;;;;;;6.90;1.55;;;11.20;99.90;;;;;;4903927;29;20060;-60
2022/11/02 01:30:53;;;;;;;6.13;1.25;;;11.30;99.90;;;;;;4887880;29;20048;-61
2022/11/02 01:33:19;;;;;;;5.88;1.40;;;11.30;99.90;;;;;;4904180;29;20108;-60
2022/11/02 01:35:44;;;;;;;6.60;1.88;;;11.20;99.90;;;;;;4904266;29;20044;-60
2022/11/02 01:38:10;;;;;;;6.15;1.33;;;11.20;99.90;;;;;;4904362;29;20053;-61
2022/11/02 01:40:39;;;;;;;3.95;1.15;;;11.10;99.90;;;;;;4903657;29;20048;-60
2022/11/02 01:43:28;;;;;;;4.03;1.20;;;11.10;99.90;;;;;;4904351;29;20044;-60
2022/11/02 01:45:55;;;;;;;8.10;2.47;;;11.20;99.90;;;;;;4903898;29;20056;-61
2022/11/02 01:48:31;;;;;;;5.65;1.15;;;11.10;99.90;;;;;;4904050;29;20096;-60
2022/11/02 01:51:00;;;;;;;5.22;1.15;;;11.20;99.90;;;;;;4904381;29;20069;-60
2022/11/02 01:53:26;;;;;;;7.60;1.45;;;11.00;99.90;;;;;;4903567;29;20462;-60
2022/11/02 01:55:51;;;;;;;5.38;1.23;;;11.20;99.90;;;;;;4904422;29;20052;-60
2022/11/02 01:58:17;;;;;;;4.75;1.38;;;11.20;99.90;;;;;;4912481;29;20052;-61
2022/11/02 02:00:43;;;;;;;6.20;1.25;;;11.10;99.90;;;;;;4923370;29;20131;-60
2022/11/02 02:03:15;;;;;;;6.55;1.23;;;11.20;99.90;;;;;;4889986;29;20091;-61
2022/11/02 02:05:42;;;;;;;;;;;11.10;99.90;;;;;;4922859;29;20044;-62
2022/11/02 02:08:10;;;;;;;6.95;1.10;;;11.20;99.90;;;;;;4922848;29;19963;-65
2022/11/02 02:10:36;;;;;;;5.72;1.08;;;11.20;99.90;;;;;;4921885;29;20052;-63
2022/11/02 02:13:04;;;;;;;5.88;0.93;;;11.00;99.90;;;;;;4906064;29;20047;-63
2022/11/02 02:16:13;;;;;;;4.47;0.77;;;11.10;99.90;;;;;;4921863;29;20060;-61
2022/11/02 02:18:46;;;;;;;2.75;0.80;;;11.00;99.90;;;;;;4904844;29;20075;-62
2022/11/02 02:21:30;;;;;;;4.57;0.90;;;10.80;99.90;;;;;;4922752;29;20056;-61
2022/11/02 02:24:11;;;;;;;4.68;1.13;;;10.90;99.90;;;;;;4904982;29;20048;-61
2022/11/02 02:26:45;;;;;;;3.13;0.80;;;10.70;99.90;;;;;;4922793;29;20051;-61
2022/11/02 02:29:23;;;;;;;3.45;0.90;;;10.80;99.90;;;;;;4922461;29;20516;-60
2022/11/02 02:32:02;;;;;;;9.18;1.00;;;10.60;99.90;;;;;;4921818;29;20044;-60
2022/11/02 02:34:37;;;;;;;4.18;0.90;;;10.60;99.90;;;;;;4922811;29;20048;-61
2022/11/02 02:37:09;;;;;;;3.78;1.02;;;10.60;99.90;;;;;;4904919;29;20052;-61
2022/11/02 02:40:17;;;;;;;5.65;1.30;;;10.70;99.90;;;;;;4922765;29;20040;-61
2022/11/02 02:43:00;;;;;;;4.70;1.48;;;10.60;99.90;;;;;;4919445;29;20056;-61
2022/11/02 02:45:33;;;;;;;5.78;1.70;;;10.50;99.90;;;;;;4921211;29;20094;-61
2022/11/02 02:48:08;;;;;;;11.55;2.30;;;10.70;99.90;;;;;;4905482;29;20508;-61
2022/11/02 02:50:41;;;;;;;6.43;2.20;;;10.70;99.90;;;;;;4922502;29;20549;-63
2022/11/02 02:53:08;;;;;;;6.57;2.80;;;10.70;99.90;;;;;;4921719;29;20067;-61
2022/11/02 02:55:41;;;;;;;6.72;2.30;;;10.80;99.90;;;;;;4922719;29;20052;-61
2022/11/02 02:58:15;;;;;;;8.88;2.35;;;10.80;99.90;;;;;;4921051;29;20044;-61
2022/11/02 03:00:41;;;;;;;10.30;2.60;;;10.70;99.90;;;;;;4922721;29;20696;-61
2022/11/02 03:03:08;;;;;;;7.93;2.10;;;10.70;99.90;;;;;;4889480;29;20048;-60
2022/11/02 03:05:35;;;;;;;8.18;2.28;;;10.90;99.90;;;;;;4922163;29;20083;-61
2022/11/02 03:08:10;;;;;;;10.40;2.33;;;10.90;99.90;;;;;;4922421;29;20072;-61
2022/11/02 03:11:00;;;;;;;7.10;1.80;;;10.90;99.90;;;;;;4921555;29;20059;-61
2022/11/02 03:13:35;;;;;;;10.23;2.63;;;10.70;99.90;;;;;;4923060;29;20083;-61
2022/11/02 03:16:09;;;;;;;8.00;1.70;;;10.80;99.90;;;;;;4921667;29;20417;-61
2022/11/02 03:18:58;;;;;;;7.88;1.40;;;10.80;99.90;;;;;;4921237;29;20139;-62
2022/11/02 03:21:40;;;;;;;8.05;1.60;;;10.70;99.90;;;;;;4922551;29;20056;-62
2022/11/02 03:24:21;;;;;;;8.50;1.73;;;10.70;99.90;;;;;;4921602;29;20150;-61
2022/11/02 03:26:49;;;;;;;6.03;1.40;;;10.70;99.90;;;;;;4922293;29;20083;-62
2022/11/02 03:29:32;;;;;;;6.85;1.50;;;10.80;99.90;;;;;;4925161;29;20048;-62
2022/11/02 03:32:12;;;;;;;6.70;1.20;;;10.70;99.90;;;;;;4924505;29;20067;-61
2022/11/02 03:34:47;;;;;;;6.30;1.10;;;10.70;99.90;;;;;;4925903;29;20044;-62
2022/11/02 03:37:18;;;;;;;8.65;1.30;;;10.60;99.90;;;;;;4924787;29;20054;-62
2022/11/02 03:39:48;;;;;;;7.30;1.25;;;10.70;99.90;;;;;;4925301;29;20058;-62
2022/11/02 03:42:19;;;;;;;3.83;1.00;;;10.70;99.90;;;;;;4924692;29;20052;-62
2022/11/02 03:44:46;;;;;;;4.63;1.00;;;10.60;99.90;;;;;;4924553;29;20044;-63
2022/11/02 03:47:16;;;;;;;8.48;1.35;;;10.60;99.90;;;;;;4925431;29;20048;-61
2022/11/02 03:49:45;;;;;;;9.40;1.40;;;10.60;99.90;;;;;;4906633;29;20075;-60
2022/11/02 03:52:17;;;;;;;9.02;1.48;;;10.50;99.90;;;;;;4925583;29;20515;-61
2022/11/02 03:54:46;;;;;;;8.32;1.58;;;10.70;99.90;;;;;;4924280;29;20044;-62
2022/11/02 03:57:20;;;;;;;10.75;1.35;;;10.60;99.90;;;;;;4923678;29;20036;-62
2022/11/02 03:59:45;;;;;;;7.20;1.30;;;10.50;99.90;;;;;;4905777;29;20037;-62
2022/11/02 04:02:13;;;;;;;6.70;1.48;;;10.50;99.90;;;;;;4904956;29;20088;-61
2022/11/02 04:04:50;;;;;;;10.77;1.73;;;10.60;99.90;;;;;;4906203;29;20048;-62
2022/11/02 04:07:23;;;;;;;9.73;1.77;;;10.60;99.90;;;;;;4905100;29;20476;-61
2022/11/02 04:09:48;;;;;;;8.95;1.48;;;10.60;99.90;;;;;;4905810;29;20048;-61
2022/11/02 04:15:00;;;;;;;9.00;1.25;;;10.50;99.90;;;;;;4904923;29;20055;-62
2022/11/02 04:20:11;;;;;;;11.05;1.85;;;10.50;99.90;;;;;;4905066;29;20063;-61
2022/11/02 04:25:21;;;;;;;8.80;1.30;;;10.60;99.90;;;;;;4905565;29;20077;-61
2022/11/02 04:27:48;;;;;;;8.20;1.42;;;10.60;99.90;;;;;;4887882;29;20044;-62
2022/11/02 04:30:17;;;;;;;9.90;1.40;;;10.60;99.90;;;;;;4905749;29;20045;-61
2022/11/02 04:35:31;;;;;;;12.60;1.92;;;10.70;99.90;;;;;;4905323;29;20063;-59
2022/11/02 04:40:42;;;;;;;9.35;1.63;;;10.60;99.90;;;;;;4904187;29;20049;-70
2022/11/02 04:43:08;;;;;;;7.20;1.30;;;10.60;99.90;;;;;;4888509;29;20100;-71
2022/11/02 04:45:34;;;;;;;10.50;1.65;;;10.50;99.90;;;;;;4887585;29;20048;-69
2022/11/02 04:48:05;;;;;;;8.32;1.20;;;10.50;99.90;;;;;;4905200;29;20040;-68
2022/11/02 04:50:31;;;;;;;10.30;2.45;;;10.40;99.90;;;;;;4905011;29;20056;-68
2022/11/02 04:53:02;;;;;;;10.15;1.60;;;10.60;99.90;;;;;;4887861;29;20052;-68
2022/11/02 04:55:28;;;;;;;10.83;1.60;;;10.50;99.90;;;;;;4904899;29;20084;-67
2022/11/02 04:57:54;;;;;;;11.32;1.63;;;10.50;99.90;;;;;;4910308;29;20112;-66
2022/11/02 05:00:21;;;;;;;14.02;2.47;;;10.40;99.90;;;;;;4907084;29;20043;-65
2022/11/02 05:02:48;;;;;;;13.95;2.85;;;10.60;99.90;;;;;;4923372;29;20465;-65
2022/11/02 05:05:15;;;;;;;9.70;1.50;;;10.40;99.90;;;;;;4923222;29;20100;-65
2022/11/02 05:07:41;;;;;;;9.65;1.50;;;10.40;99.90;;;;;;4923512;29;20052;-65
2022/11/02 05:10:07;;;;;;;13.15;2.05;;;10.40;99.90;;;;;;4922818;29;20036;-64
2022/11/02 05:12:33;;;;;;;10.75;1.73;;;10.40;99.90;;;;;;4923434;29;20051;-64
2022/11/02 05:14:58;;;;;;;10.18;2.17;;;10.50;99.90;;;;;;4922667;29;20054;-65
2022/11/02 05:17:24;;;;;;;10.80;1.77;;;10.40;99.90;;;;;;4923714;29;20145;-64
2022/11/02 05:19:50;;;;;;;11.73;2.00;;;10.60;99.90;;;;;;4922787;29;20143;-65
2022/11/02 05:22:15;;;;;;;6.68;1.60;;;10.40;99.90;;;;;;4923395;29;20063;-65
2022/11/02 05:24:41;;;;;;;10.40;2.30;;;10.40;99.90;;;;;;4922898;29;20103;-61
2022/11/02 05:27:09;;;;;;;10.77;2.10;;;10.50;99.90;;;;;;4906011;29;20059;-65
2022/11/02 05:29:35;;;;;;;10.77;2.10;;;10.40;99.90;;;;;;4923431;29;20036;-65
2022/11/02 05:32:00;;;;;;;7.72;2.20;;;10.30;99.90;;;;;;4922321;29;20095;-63
2022/11/02 05:34:26;;;;;;;8.18;1.95;;;10.40;99.90;;;;;;4923846;29;20079;-64
2022/11/02 05:36:51;;;;;;;13.82;2.25;;;10.50;99.90;;;;;;4922203;29;20052;-64
2022/11/02 05:39:17;;;;;;;7.88;1.88;;;10.30;99.90;;;;;;4923377;29;20040;-63
2022/11/02 05:41:43;;;;;;;11.25;2.47;;;10.40;99.90;;;;;;4922352;29;20079;-64
2022/11/02 05:44:08;;;;;;;10.32;1.92;;;10.50;99.90;;;;;;4922752;29;20040;-62
2022/11/02 05:46:34;;;;;;;11.68;3.38;;;10.50;99.90;;;;;;4922928;29;20048;-64
2022/11/02 05:49:00;;;;;;;15.07;2.78;;;10.50;99.90;;;;;;4904990;29;20054;-64
2022/11/02 05:51:25;;;;;;;13.85;2.42;;;10.60;99.90;;;;;;4922368;29;20134;-64
2022/11/02 05:53:51;;;;;;;8.45;2.10;;;10.60;99.90;;;;;;4904814;29;20139;-64
2022/11/02 05:56:16;;;;;;;11.48;2.10;;;10.50;99.90;;;;;;4923370;29;20131;-63
2022/11/02 05:58:42;;;;;;;15.60;2.45;;;10.60;99.90;;;;;;4909575;29;20476;-63
2022/11/02 06:01:09;;;;;;;10.80;2.63;;;10.70;99.90;;;;;;4903705;29;20045;-64
2022/11/02 06:03:35;;;;;;;12.65;2.30;;;10.70;99.90;;;;;;4904084;29;20045;-63
2022/11/02 06:06:03;;;;;;;9.57;1.95;;;10.60;99.90;;;;;;4920430;29;20510;-62
2022/11/02 06:08:33;;;;;;;15.05;2.67;;;10.60;99.90;;;;;;4922597;29;20047;-63
2022/11/02 06:11:03;;;;;;;8.07;2.00;;;10.70;99.90;;;;;;4921520;29;20087;-63
2022/11/02 06:13:29;;;;;;;9.35;2.38;;;10.60;99.90;;;;;;4922869;29;20056;-63
2022/11/02 06:15:58;;;;;;;10.05;2.28;;;10.80;99.90;;;;;;4921894;29;20044;-62
2022/11/02 06:18:24;;;;;;;12.98;2.13;;;10.80;99.90;;;;;;4921823;29;20048;-63
2022/11/02 06:20:49;;;;;;;11.35;2.70;;;10.80;99.90;;;;;;4918485;29;20051;-63
2022/11/02 06:23:17;;;;;;;13.82;4.22;;;10.80;99.90;;;;;;4918227;29;20044;-69
2022/11/02 06:25:48;;;;;;;11.95;2.55;;;10.70;99.90;;;;;;4919203;29;20064;-68
2022/11/02 06:28:14;;;;;;;14.93;3.65;;;10.70;99.90;;;;;;4917998;29;20051;-70
2022/11/02 06:30:41;;;;;;;15.35;2.75;;;10.70;99.90;;;;;;4919006;29;20396;-72
2022/11/02 06:33:07;;;;;;;13.63;2.83;;;10.70;99.90;;;;;;4900895;29;20390;-70
2022/11/02 06:35:33;;;;;;;17.65;3.03;;;10.80;99.90;;;;;;4918216;29;20086;-70
2022/11/02 06:37:58;;;;;;;8.23;2.20;;;10.70;99.90;;;;;;4918634;29;20523;-70
2022/11/02 06:40:24;;;;;;;10.30;2.25;;;10.50;99.90;;;;;;4917955;29;20036;-69
2022/11/02 06:42:55;;;;;;;15.32;2.15;;;10.60;99.90;;;;;;4918607;29;20068;-69
2022/11/02 06:45:20;;;;;;;13.07;2.33;;;10.50;99.90;;;;;;4917422;29;20394;-68
2022/11/02 06:47:47;;;;;;;9.57;2.75;;;10.60;99.90;;;;;;4919003;29;20052;-67
2022/11/02 06:50:13;;;;;;;12.55;2.03;;;10.60;99.90;;;;;;4917980;29;20096;-65
2022/11/02 06:52:43;;;;;;;8.73;1.83;;;10.50;99.90;;;;;;4901028;29;20460;-65
2022/11/02 06:55:10;;;;;;;11.65;1.50;;;10.50;99.90;;;;;;4900765;29;20146;-67
2022/11/02 06:57:37;;;;;;;10.20;1.50;;;10.50;99.90;;;;;;4917158;29;20048;-66
2022/11/02 07:00:11;;;;;;;12.20;2.78;;;10.60;99.90;;;;;;4918254;29;20047;-67
2022/11/02 07:02:37;;;;;;;10.43;1.52;;;10.70;99.90;;;;;;4919761;29;20080;-67
2022/11/02 07:05:02;;;;;;;11.55;1.80;;;10.70;99.90;;;;;;4922300;29;20048;-67
2022/11/02 07:07:28;;;;;;;10.68;2.30;;;10.60;99.90;;;;;;4895382;29;20048;-67
2022/11/02 07:09:54;;;;;;;10.70;1.77;;;10.70;99.90;;;;;;4912923;29;20074;-66
2022/11/02 07:12:19;;;;;;;13.38;1.50;;;10.70;99.90;;;;;;4913082;29;20044;-66
2022/11/02 07:14:45;;;;;;;12.70;2.08;;;10.80;99.90;;;;;;4911845;29;20083;-66
2022/11/02 07:17:11;;;;;;;7.93;1.50;;;10.70;99.90;;;;;;4913321;29;20044;-66
2022/11/02 07:19:36;;;;;;;8.50;1.10;;;10.60;99.90;;;;;;4912033;29;20292;-66
2022/11/02 07:22:02;;;;;;;8.88;1.50;;;10.60;99.90;;;;;;4913696;29;20052;-65
2022/11/02 07:24:28;;;;;;;10.63;1.92;;;10.60;99.90;;;;;;4912970;29;20048;-65
2022/11/02 07:26:54;;;;;;;7.75;1.40;;;10.60;99.90;;;;;;4913176;29;20079;-64
2022/11/02 07:29:19;;;;;;;8.32;1.55;;;10.50;99.90;;;;;;4912644;29;20082;-64
2022/11/02 07:31:45;;;;;;;5.95;1.48;;;10.60;99.90;;;;;;4911803;29;20123;-63
2022/11/02 07:34:12;;;;;;;7.38;1.00;;;10.50;99.90;;;;;;4913750;29;20044;-64
2022/11/02 07:36:38;;;;;;;12.60;1.65;;;10.60;99.90;;;;;;4910437;29;20044;-64
2022/11/02 07:39:04;;;;;;;9.40;1.40;;;10.50;99.90;;;;;;4912867;29;20150;-64
2022/11/02 07:41:30;;;;;;;6.88;1.20;;;10.50;99.90;;;;;;4911523;29;20060;-64
2022/11/02 07:43:55;;;;;;;12.27;1.55;;;10.60;99.90;;;;;;4912439;29;20223;-64
2022/11/02 07:46:21;;;;;;;8.30;1.40;;;10.60;99.90;;;;;;4912878;29;20052;-63
2022/11/02 07:48:47;;;;;;;8.60;1.70;;;10.50;99.90;;;;;;4912575;29;20055;-63
2022/11/02 07:51:13;;;;;;;6.53;1.40;;;10.60;99.90;;;;;;4912456;29;20104;-63
2022/11/02 07:53:39;;;;;;;9.45;1.83;;;10.60;99.90;;;;;;4911324;29;20123;-63
2022/11/02 07:56:06;;;;;;;10.10;1.90;;;10.60;99.90;;;;;;4911782;29;20613;-62
2022/11/02 07:58:32;;;;;;;11.30;1.63;;;10.70;99.90;;;;;;4911262;29;20531;-63
2022/11/02 08:00:59;;;;;;;5.53;1.63;;;10.80;99.90;;;;;;4913005;29;20040;-63
2022/11/02 08:03:25;;;;;;;6.40;1.40;;;11.00;99.90;;;;;;4912445;29;20087;-63
2022/11/02 08:05:51;;;;;;;5.32;1.35;;;11.10;99.90;;;;;;4911626;29;20036;-62
2022/11/02 08:08:22;;;;;;;8.13;1.40;;;11.20;99.90;;;;;;4912974;29;20373;-62
2022/11/02 08:10:50;;;;;;;8.95;1.70;;;11.30;99.90;;;;;;4912999;29;20075;-62
2022/11/02 08:13:18;;;;;;;7.47;1.42;;;11.30;99.90;;;;;;4915688;29;20547;-63
2022/11/02 08:15:48;;;;;;;5.88;1.48;;;11.30;99.90;;;;;;4915160;29;20107;-63
2022/11/02 08:18:16;;;;;;;6.95;1.23;;;11.30;99.90;;;;;;4915762;29;20052;-63
2022/11/02 08:20:44;;;;;;;9.95;1.50;;;11.30;99.90;;;;;;4916036;29;20048;-63
2022/11/02 08:23:10;;;;;;;8.00;1.80;;;11.30;99.90;;;;;;4914834;29;20052;-63
2022/11/02 08:25:38;;;;;;;8.52;1.70;;;11.30;99.90;;;;;;4915905;29;20047;-70
2022/11/02 08:28:05;;;;;;;9.60;1.35;;;11.20;99.90;;;;;;4914855;29;20044;-71
2022/11/02 08:30:32;;;;;;;12.27;1.80;;;11.00;99.90;;;;;;4899271;29;20044;-70
2022/11/02 08:33:11;;;;;;;9.02;1.67;;;11.30;99.90;;;;;;4915686;29;20061;-69
2022/11/02 08:35:38;;;;;;;10.23;2.63;;;11.10;99.90;;;;;;4898657;29;21435;-68
2022/11/02 08:38:05;;;;;;;11.85;2.25;;;11.20;99.90;;;;;;4915379;29;20051;-67
2022/11/02 08:40:31;;;;;;;13.18;1.85;;;11.20;99.90;;;;;;4897700;29;20052;-67
2022/11/02 08:43:06;;;;;;;11.43;2.05;;;11.40;99.90;;;;;;4916190;29;20062;-66
2022/11/02 08:45:35;;;;;;;9.18;1.60;;;11.50;99.90;;;;;;4915232;29;20451;-64
2022/11/02 08:48:01;;;;;;;8.90;1.50;;;11.50;99.90;;;;;;4915466;29;20059;-64
2022/11/02 08:50:27;;;;;;;7.85;1.35;;;11.50;99.90;;;;;;4915423;29;20512;-65
2022/11/02 08:52:53;;;;;;;10.98;1.65;;;11.60;99.90;;;;;;4915063;29;20116;-64
2022/11/02 08:55:18;;;;;;;7.00;1.50;;;11.60;99.90;;;;;;4915887;29;21325;-64
2022/11/02 08:57:48;;;;;;;9.75;1.90;;;11.50;99.90;;;;;;4914410;29;20064;-64
2022/11/02 09:00:14;;;;;;;12.73;1.70;;;11.60;99.90;;;;;;4914597;29;20162;-63
2022/11/02 09:02:40;;;;;;;9.15;1.50;;;11.70;99.90;;;;;;4896401;29;20076;-64
2022/11/02 09:05:07;;;;;;;11.98;1.17;;;11.70;99.90;;;;;;4894879;29;20076;-64
2022/11/02 09:07:32;;;;;;;11.32;1.77;;;11.80;99.90;;;;;;4914681;29;20059;-64
2022/11/02 09:09:58;;;;;;;11.82;1.63;;;11.90;99.90;;;;;;4914539;29;20039;-66
2022/11/02 09:12:24;;;;;;;11.68;1.55;;;11.90;99.90;;;;;;4915092;29;20071;-64
2022/11/02 09:14:49;;;;;;;11.32;1.75;;;11.70;99.90;;;;;;4911664;29;20054;-63
2022/11/02 09:17:15;;;;;;;9.90;3.10;;;12.00;99.90;;;;;;4912936;29;20044;-63
2022/11/02 09:19:41;;;;;;;9.23;1.75;;;12.00;99.90;;;;;;4911023;29;20052;-63
2022/11/02 09:22:06;;;;;;;11.43;1.77;;;12.10;99.90;;;;;;4911975;29;20477;-65
2022/11/02 09:24:32;;;;;;;13.35;2.40;;;12.10;99.90;;;;;;4905773;29;20539;-63
2022/11/02 09:26:58;;;;;;;11.60;2.00;;;12.30;99.90;;;;;;4905777;29;20055;-63
2022/11/02 09:29:23;;;;;;;15.65;2.78;;;12.30;99.90;;;;;;4911559;29;20064;-63
2022/11/02 09:31:49;;;;;;;10.32;1.52;;;12.40;99.90;;;;;;4911679;29;20052;-64
2022/11/02 09:34:15;;;;;;;9.63;1.88;;;12.50;99.90;;;;;;4912862;29;20036;-63
2022/11/02 09:36:41;;;;;;;14.45;2.30;;;12.50;99.90;;;;;;4911672;29;20038;-63
2022/11/02 09:39:07;;;;;;;12.57;2.05;;;12.40;99.90;;;;;;4912869;29;20055;-63
2022/11/02 09:41:43;;;;;;;16.67;2.45;;;12.50;99.90;;;;;;4911076;29;20052;-64
2022/11/02 09:44:24;;;;;;;14.27;2.15;;;12.60;99.90;;;;;;4878859;29;20056;-63
2022/11/02 09:46:50;;;;;;;9.10;2.30;;;12.60;99.90;;;;;;4895205;29;20178;-62
2022/11/02 09:49:24;;;;;;;11.38;1.92;;;12.50;99.90;;;;;;4911512;29;20150;-64
2022/11/02 09:51:54;;;;;;;15.45;2.33;;;12.60;99.90;;;;;;4912411;29;20067;-63
2022/11/02 09:54:53;;;;;;;13.55;2.95;;;12.60;99.90;;;;;;4909880;29;20044;-63
2022/11/02 09:57:31;;;;;;;11.02;1.88;;;12.50;99.90;;;;;;4843980;29;20116;-63
2022/11/02 09:59:58;;;;;;;9.07;1.67;;;12.40;99.90;;;;;;4897155;29;20128;-64
2022/11/02 10:02:29;;;;;;;15.90;2.60;;;12.40;99.90;;;;;;4913805;29;20437;-64
2022/11/02 10:05:26;;;;;;;12.60;2.90;;;12.40;99.90;;;;;;4914236;29;20054;-63
2022/11/02 10:08:16;;;;;;;12.45;1.80;;;12.30;99.90;;;;;;4914601;29;20563;-64
2022/11/02 10:10:47;;;;;;;14.00;1.98;;;12.30;99.90;;;;;;4913712;29;20044;-64
2022/11/02 10:13:35;;;;;;;8.87;1.57;;;12.30;99.90;;;;;;4914338;29;20055;-63
2022/11/02 10:16:09;;;;;;;12.60;1.67;;;12.50;99.90;;;;;;4913119;29;20050;-63
2022/11/02 10:18:36;;;;;;;8.35;1.80;;;12.60;99.90;;;;;;4912686;29;20077;-64
2022/11/02 10:21:25;;;;;;;9.90;1.73;;;12.80;99.90;;;;;;4914456;29;20091;-64
2022/11/02 10:23:56;;;;;;;9.02;1.60;;;12.90;99.90;;;;;;4913707;29;20044;-63
2022/11/02 10:26:28;;;;;;;8.27;1.52;;;12.90;99.90;;;;;;4914874;29;20048;-63
2022/11/02 10:29:14;;;;;;;7.45;1.58;;;13.00;99.90;;;;;;4896253;29;20079;-63
2022/11/02 10:31:39;;;;;;;12.63;1.70;;;13.10;99.90;;;;;;4913795;29;20048;-64
2022/11/02 10:34:26;;;;;;;10.43;1.75;;;13.10;99.90;;;;;;4914973;29;20051;-63
2022/11/02 10:37:01;;;;;;;10.00;1.98;;;13.10;99.90;;;;;;4914100;29;20055;-63
2022/11/02 10:39:26;;;;;;;18.00;2.22;;;13.20;99.90;;;;;;4918024;29;20087;-63
2022/11/02 10:42:15;;;;;;;12.32;1.50;;;13.10;99.90;;;;;;4900487;29;20048;-63
2022/11/02 10:45:00;;;;;;;9.88;1.50;;;13.10;99.90;;;;;;4870651;29;20056;-62
2022/11/02 10:47:57;;;;;;;13.07;2.45;;;13.00;99.90;;;;;;4918861;29;20048;-63
2022/11/02 10:50:43;;;;;;;13.65;1.95;;;12.90;99.90;;;;;;4915983;29;20523;-63
2022/11/02 10:53:14;;;;;;;12.50;1.75;;;12.90;99.90;;;;;;4900127;29;20052;-63
2022/11/02 10:55:55;;;;;;;10.57;1.63;;;12.90;99.90;;;;;;4917767;29;20154;-63
2022/11/02 10:58:23;;;;;;;10.13;1.40;;;12.90;99.90;;;;;;4917073;29;20084;-63
2022/11/02 11:00:50;;;;;;;13.30;2.03;;;12.90;99.90;;;;;;4898485;29;21078;-63
2022/11/02 11:03:17;;;;;;;10.38;1.65;;;12.80;99.90;;;;;;4913779;29;20075;-63
2022/11/02 11:06:03;;;;;;;11.27;1.60;;;12.70;99.90;;;;;;4913331;29;20370;-63
2022/11/02 11:08:41;;;;;;;12.32;1.83;;;12.70;99.90;;;;;;4912771;29;20107;-63
2022/11/02 11:11:29;;;;;;;12.57;1.75;;;12.60;99.90;;;;;;4912689;29;20341;-62
2022/11/02 11:14:05;;;;;;;9.07;1.55;;;12.60;99.90;;;;;;4912402;29;20580;-63
2022/11/02 11:16:37;;;;;;;12.60;1.75;;;12.40;99.90;;;;;;4912898;29;20055;-64
2022/11/02 11:19:05;;;;;;;12.68;1.50;;;12.30;99.90;;;;;;4911958;29;20063;-64
2022/11/02 11:21:39;;;;;;;13.15;2.33;;;12.20;99.90;;;;;;4914197;29;20094;-62
2022/11/02 11:24:32;;;;;;;11.77;2.35;;;12.20;99.90;;;;;;4912700;29;20063;-63
2022/11/02 11:27:02;;;;;;;11.10;1.63;;;12.20;99.90;;;;;;4909459;29;20052;-64
2022/11/02 11:29:36;;;;;;;8.50;1.45;;;12.20;99.90;;;;;;4913851;29;20370;-64
2022/11/02 11:32:03;;;;;;;9.20;1.77;;;12.20;99.90;;;;;;4912362;29;20048;-64
2022/11/02 11:34:39;;;;;;;15.15;1.73;;;12.20;99.90;;;;;;4912804;29;20079;-64
2022/11/02 11:37:10;;;;;;;9.10;1.40;;;12.10;99.90;;;;;;4912104;29;20044;-64
2022/11/02 11:39:39;;;;;;;10.87;1.40;;;12.10;99.90;;;;;;4912460;29;20052;-63
2022/11/02 11:42:20;;;;;;;9.93;1.60;;;12.20;99.90;;;;;;4895697;29;20097;-62
2022/11/02 11:45:12;;;;;;;11.20;1.70;;;12.30;99.90;;;;;;4911655;29;20050;-62
2022/11/02 11:47:41;;;;;;;15.32;1.50;;;12.60;99.90;;;;;;4895718;29;20614;-62
2022/11/02 11:50:14;;;;;;;7.20;1.25;;;12.80;99.90;;;;;;4911198;29;20407;-63
2022/11/02 11:52:40;;;;;;;10.38;1.80;;;13.00;99.90;;;;;;4912687;29;20040;-64
2022/11/02 11:55:24;;;;;;;9.75;1.45;;;13.20;99.90;;;;;;4913123;29;20044;-64
2022/11/02 11:58:04;;;;;;;11.98;2.63;;;13.20;99.90;;;;;;4912341;29;20107;-64
2022/11/02 12:00:30;;;;;;;11.07;1.83;;;13.30;99.90;;;;;;4913073;29;20048;-64
2022/11/02 12:03:09;;;;;;;8.02;1.92;;;13.30;99.90;;;;;;4912023;29;20446;-64
2022/11/02 12:06:00;;;;;;;9.25;1.20;;;13.30;99.90;;;;;;4911561;29;20050;-64
2022/11/02 12:08:46;;;;;;;8.68;1.30;;;13.40;99.90;;;;;;4912430;29;20048;-64
2022/11/02 12:11:33;;;;;;;7.82;1.30;;;13.40;99.90;;;;;;4910640;29;20048;-64
2022/11/02 12:14:12;;;;;;;11.30;1.95;;;13.40;99.90;;;;;;4912228;29;20040;-65
2022/11/02 12:17:02;;;;;;;9.32;1.40;;;13.30;99.90;;;;;;4912796;29;20087;-65
2022/11/02 12:20:09;;;;;;;6.05;1.30;;;13.30;99.90;;;;;;4911715;29;20083;-64
2022/11/02 12:23:12;;;;;;;7.10;1.17;;;13.30;99.90;;;;;;4865945;29;20159;-64
2022/11/02 12:25:53;;;;;;;10.95;2.28;;;13.30;99.90;;;;;;4912664;29;20039;-66
2022/11/02 12:28:43;;;;;;;6.88;1.58;;;13.30;99.90;;;;;;4911724;29;20040;-64
2022/11/02 12:31:15;;;;;;;7.75;1.20;;;13.30;99.90;;;;;;4911249;29;20048;-64
2022/11/02 12:33:50;;;;;;;14.97;1.60;;;13.40;99.90;;;;;;4912628;29;20489;-64
2022/11/02 12:36:16;;;;;;;9.00;1.55;;;13.40;99.90;;;;;;4912520;29;20092;-65
2022/11/02 12:38:45;;;;;;;6.82;1.45;;;13.40;99.90;;;;;;4914957;29;20121;-64
2022/11/02 12:41:39;;;;;;;10.70;1.63;;;13.40;99.90;;;;;;4914647;29;20519;-64
2022/11/02 12:44:25;;;;;;;9.60;1.52;;;13.40;99.90;;;;;;4914548;29;20044;-64
2022/11/02 12:47:29;;;;;;;12.32;1.48;;;13.40;99.90;;;;;;4915182;29;20388;-64
2022/11/02 12:50:27;;;;;;;13.60;1.52;;;13.40;99.90;;;;;;4914437;29;20081;-63
2022/11/02 12:53:16;;;;;;;7.45;1.33;;;13.30;99.90;;;;;;4913329;29;20068;-64
2022/11/02 12:55:50;;;;;;;11.98;1.73;;;13.20;99.90;;;;;;4915269;29;20091;-63
2022/11/02 12:58:32;;;;;;;9.15;1.30;;;13.10;99.90;;;;;;4896360;29;20048;-63
2022/11/02 13:01:11;;;;;;;12.70;1.70;;;13.00;99.90;;;;;;4915101;29;20112;-63
2022/11/02 13:03:57;;;;;;;9.45;1.17;;;12.90;99.90;;;;;;4915288;29;20078;-64
2022/11/02 13:06:35;;;;;;;8.38;1.73;;;12.80;99.90;;;;;;4914400;29;20060;-64
2022/11/02 13:09:07;;;;;;;10.30;1.50;;;12.80;99.90;;;;;;4915128;29;20088;-64
2022/11/02 13:11:43;;;;;;;12.60;1.50;;;12.80;99.90;;;;;;4914358;29;20055;-64
2022/11/02 13:14:15;;;;;;;11.10;2.35;;;13.00;99.90;;;;;;4914444;29;20048;-64
2022/11/02 13:17:10;;;;;;;7.53;1.40;;;13.20;99.90;;;;;;4915135;29;20084;-64